sensor_id;sensor_type;location;lat;lon;timestamp;P1;durP1;ratioP1;P2;durP2;ratioP2
5191;SDS011;2615;44.524;11.284;2023-04-03T00:01:12;6.37;;;4.20;;
5191;SDS011;2615;44.524;11.284;2023-04-03T00:03:42;6.33;;;5.00;;
5191;SDS011;2615;44.524;11.284;2023-04-03T00:06:10;4.90;;;4.00;;
5191;SDS011;2615;44.524;11.284;2023-04-03T00:08:38;6.70;;;4.50;;
5191;SDS011;2615;44.524;11.284;2023-04-03T00:11:07;6.90;;;5.00;;
5191;SDS011;2615;44.524;11.284;2023-04-03T00:13:36;5.90;;;4.30;;
5191;SDS011;2615;44.524;11.284;2023-04-03T00:16:05;4.73;;;3.97;;
5191;SDS011;2615;44.524;11.284;2023-04-03T00:18:34;4.80;;;4.20;;
5191;SDS011;2615;44.524;11.284;2023-04-03T00:21:04;6.70;;;4.10;;
5191;SDS011;2615;44.524;11.284;2023-04-03T00:23:32;8.50;;;4.10;;
5191;SDS011;2615;44.524;11.284;2023-04-03T00:26:01;5.43;;;4.63;;
5191;SDS011;2615;44.524;11.284;2023-04-03T00:28:29;6.10;;;4.40;;
5191;SDS011;2615;44.524;11.284;2023-04-03T00:30:57;5.67;;;4.37;;
5191;SDS011;2615;44.524;11.284;2023-04-03T00:33:26;6.90;;;4.60;;
5191;SDS011;2615;44.524;11.284;2023-04-03T00:35:54;6.17;;;4.03;;
5191;SDS011;2615;44.524;11.284;2023-04-03T00:38:23;7.23;;;5.50;;
5191;SDS011;2615;44.524;11.284;2023-04-03T00:40:51;8.17;;;5.60;;
5191;SDS011;2615;44.524;11.284;2023-04-03T00:43:20;7.90;;;6.37;;
5191;SDS011;2615;44.524;11.284;2023-04-03T00:45:51;9.87;;;6.37;;
5191;SDS011;2615;44.524;11.284;2023-04-03T00:48:20;7.40;;;5.67;;
5191;SDS011;2615;44.524;11.284;2023-04-03T00:50:50;7.93;;;4.77;;
5191;SDS011;2615;44.524;11.284;2023-04-03T00:53:21;6.87;;;4.50;;
5191;SDS011;2615;44.524;11.284;2023-04-03T00:55:53;6.60;;;4.47;;
5191;SDS011;2615;44.524;11.284;2023-04-03T00:58:24;7.60;;;4.93;;
5191;SDS011;2615;44.524;11.284;2023-04-03T01:00:56;8.40;;;4.80;;
5191;SDS011;2615;44.524;11.284;2023-04-03T01:03:26;7.70;;;5.30;;
5191;SDS011;2615;44.524;11.284;2023-04-03T01:05:54;8.90;;;5.37;;
5191;SDS011;2615;44.524;11.284;2023-04-03T01:08:23;7.27;;;4.43;;
5191;SDS011;2615;44.524;11.284;2023-04-03T01:10:51;7.13;;;4.73;;
5191;SDS011;2615;44.524;11.284;2023-04-03T01:13:22;7.13;;;5.20;;
5191;SDS011;2615;44.524;11.284;2023-04-03T01:15:52;10.47;;;5.20;;
5191;SDS011;2615;44.524;11.284;2023-04-03T01:18:21;7.10;;;4.17;;
5191;SDS011;2615;44.524;11.284;2023-04-03T01:23:55;5.67;;;4.20;;
5191;SDS011;2615;44.524;11.284;2023-04-03T01:26:28;6.30;;;4.73;;
5191;SDS011;2615;44.524;11.284;2023-04-03T01:28:58;7.47;;;4.20;;
5191;SDS011;2615;44.524;11.284;2023-04-03T01:31:27;6.50;;;4.53;;
5191;SDS011;2615;44.524;11.284;2023-04-03T01:34:00;5.60;;;4.00;;
5191;SDS011;2615;44.524;11.284;2023-04-03T01:36:29;6.53;;;4.43;;
5191;SDS011;2615;44.524;11.284;2023-04-03T01:38:59;7.40;;;4.80;;
5191;SDS011;2615;44.524;11.284;2023-04-03T01:41:28;6.10;;;4.57;;
5191;SDS011;2615;44.524;11.284;2023-04-03T01:43:56;6.77;;;4.87;;
5191;SDS011;2615;44.524;11.284;2023-04-03T01:46:24;5.60;;;4.63;;
5191;SDS011;2615;44.524;11.284;2023-04-03T01:48:52;7.80;;;5.00;;
5191;SDS011;2615;44.524;11.284;2023-04-03T01:51:22;7.23;;;4.80;;
5191;SDS011;2615;44.524;11.284;2023-04-03T01:53:50;5.70;;;4.37;;
5191;SDS011;2615;44.524;11.284;2023-04-03T01:56:18;5.73;;;4.53;;
5191;SDS011;2615;44.524;11.284;2023-04-03T01:58:46;7.20;;;4.40;;
5191;SDS011;2615;44.524;11.284;2023-04-03T02:01:14;6.80;;;4.67;;
5191;SDS011;2615;44.524;11.284;2023-04-03T02:03:42;5.20;;;4.70;;
5191;SDS011;2615;44.524;11.284;2023-04-03T02:06:10;6.97;;;4.57;;
5191;SDS011;2615;44.524;11.284;2023-04-03T02:08:40;6.50;;;5.27;;
5191;SDS011;2615;44.524;11.284;2023-04-03T02:11:08;5.80;;;4.80;;
5191;SDS011;2615;44.524;11.284;2023-04-03T02:13:36;6.40;;;5.33;;
5191;SDS011;2615;44.524;11.284;2023-04-03T02:16:08;7.30;;;5.07;;
5191;SDS011;2615;44.524;11.284;2023-04-03T02:18:37;5.67;;;4.47;;
5191;SDS011;2615;44.524;11.284;2023-04-03T02:21:06;6.67;;;4.93;;
5191;SDS011;2615;44.524;11.284;2023-04-03T02:23:34;6.90;;;4.60;;
5191;SDS011;2615;44.524;11.284;2023-04-03T02:26:05;10.30;;;4.87;;
5191;SDS011;2615;44.524;11.284;2023-04-03T02:28:35;6.33;;;5.03;;
5191;SDS011;2615;44.524;11.284;2023-04-03T02:31:04;6.90;;;5.30;;
5191;SDS011;2615;44.524;11.284;2023-04-03T02:33:33;9.63;;;7.13;;
5191;SDS011;2615;44.524;11.284;2023-04-03T02:36:02;13.30;;;7.80;;
5191;SDS011;2615;44.524;11.284;2023-04-03T02:38:31;11.07;;;7.03;;
5191;SDS011;2615;44.524;11.284;2023-04-03T02:41:00;9.00;;;5.77;;
5191;SDS011;2615;44.524;11.284;2023-04-03T02:43:30;9.97;;;6.57;;
5191;SDS011;2615;44.524;11.284;2023-04-03T02:45:58;7.27;;;5.37;;
5191;SDS011;2615;44.524;11.284;2023-04-03T02:48:26;8.13;;;5.20;;
5191;SDS011;2615;44.524;11.284;2023-04-03T02:50:54;6.30;;;4.60;;
5191;SDS011;2615;44.524;11.284;2023-04-03T02:53:22;10.70;;;5.30;;
5191;SDS011;2615;44.524;11.284;2023-04-03T02:55:51;7.13;;;4.67;;
5191;SDS011;2615;44.524;11.284;2023-04-03T02:58:19;6.80;;;5.10;;
5191;SDS011;2615;44.524;11.284;2023-04-03T03:00:48;6.20;;;5.30;;
5191;SDS011;2615;44.524;11.284;2023-04-03T03:03:16;5.70;;;4.50;;
5191;SDS011;2615;44.524;11.284;2023-04-03T03:05:44;6.97;;;4.80;;
5191;SDS011;2615;44.524;11.284;2023-04-03T03:08:14;7.33;;;5.07;;
5191;SDS011;2615;44.524;11.284;2023-04-03T03:10:42;8.73;;;4.60;;
5191;SDS011;2615;44.524;11.284;2023-04-03T03:13:11;5.10;;;4.50;;
5191;SDS011;2615;44.524;11.284;2023-04-03T03:15:39;9.50;;;5.00;;
5191;SDS011;2615;44.524;11.284;2023-04-03T03:18:09;6.93;;;5.40;;
5191;SDS011;2615;44.524;11.284;2023-04-03T03:20:37;7.77;;;5.37;;
5191;SDS011;2615;44.524;11.284;2023-04-03T03:23:05;10.40;;;7.20;;
5191;SDS011;2615;44.524;11.284;2023-04-03T03:25:33;7.47;;;5.73;;
5191;SDS011;2615;44.524;11.284;2023-04-03T03:28:04;8.07;;;5.50;;
5191;SDS011;2615;44.524;11.284;2023-04-03T03:30:32;7.40;;;5.97;;
5191;SDS011;2615;44.524;11.284;2023-04-03T03:33:01;7.73;;;5.70;;
5191;SDS011;2615;44.524;11.284;2023-04-03T03:35:31;8.00;;;5.70;;
5191;SDS011;2615;44.524;11.284;2023-04-03T03:37:59;7.47;;;5.90;;
5191;SDS011;2615;44.524;11.284;2023-04-03T03:40:27;6.73;;;5.30;;
5191;SDS011;2615;44.524;11.284;2023-04-03T03:42:55;8.27;;;6.07;;
5191;SDS011;2615;44.524;11.284;2023-04-03T03:45:23;7.30;;;5.53;;
5191;SDS011;2615;44.524;11.284;2023-04-03T03:47:52;10.00;;;5.70;;
5191;SDS011;2615;44.524;11.284;2023-04-03T03:50:20;5.80;;;4.30;;
5191;SDS011;2615;44.524;11.284;2023-04-03T03:52:49;7.77;;;5.40;;
5191;SDS011;2615;44.524;11.284;2023-04-03T03:55:17;10.20;;;5.07;;
5191;SDS011;2615;44.524;11.284;2023-04-03T03:57:46;6.53;;;4.93;;
5191;SDS011;2615;44.524;11.284;2023-04-03T04:00:14;9.53;;;5.10;;
5191;SDS011;2615;44.524;11.284;2023-04-03T04:02:43;7.67;;;5.33;;
5191;SDS011;2615;44.524;11.284;2023-04-03T04:05:11;7.93;;;5.10;;
5191;SDS011;2615;44.524;11.284;2023-04-03T04:07:39;6.80;;;5.23;;
5191;SDS011;2615;44.524;11.284;2023-04-03T04:10:09;8.30;;;6.37;;
5191;SDS011;2615;44.524;11.284;2023-04-03T04:12:37;6.47;;;5.30;;
5191;SDS011;2615;44.524;11.284;2023-04-03T04:15:06;13.20;;;6.50;;
5191;SDS011;2615;44.524;11.284;2023-04-03T04:17:34;7.63;;;5.93;;
5191;SDS011;2615;44.524;11.284;2023-04-03T04:20:03;8.63;;;6.67;;
5191;SDS011;2615;44.524;11.284;2023-04-03T04:22:32;10.67;;;6.40;;
5191;SDS011;2615;44.524;11.284;2023-04-03T04:25:00;8.60;;;7.17;;
5191;SDS011;2615;44.524;11.284;2023-04-03T04:27:29;12.63;;;6.73;;
5191;SDS011;2615;44.524;11.284;2023-04-03T04:29:57;10.70;;;6.30;;
5191;SDS011;2615;44.524;11.284;2023-04-03T04:32:26;8.50;;;6.80;;
5191;SDS011;2615;44.524;11.284;2023-04-03T04:34:54;8.40;;;6.17;;
5191;SDS011;2615;44.524;11.284;2023-04-03T04:37:22;8.27;;;6.30;;
5191;SDS011;2615;44.524;11.284;2023-04-03T04:39:50;16.63;;;7.00;;
5191;SDS011;2615;44.524;11.284;2023-04-03T04:42:18;9.33;;;6.03;;
5191;SDS011;2615;44.524;11.284;2023-04-03T04:44:47;8.77;;;5.77;;
5191;SDS011;2615;44.524;11.284;2023-04-03T04:47:16;9.13;;;6.07;;
5191;SDS011;2615;44.524;11.284;2023-04-03T04:49:44;7.67;;;6.20;;
5191;SDS011;2615;44.524;11.284;2023-04-03T04:52:13;9.97;;;6.60;;
5191;SDS011;2615;44.524;11.284;2023-04-03T04:54:42;9.43;;;7.07;;
5191;SDS011;2615;44.524;11.284;2023-04-03T04:57:10;8.30;;;5.90;;
5191;SDS011;2615;44.524;11.284;2023-04-03T04:59:38;9.57;;;6.90;;
5191;SDS011;2615;44.524;11.284;2023-04-03T05:02:07;8.83;;;5.97;;
5191;SDS011;2615;44.524;11.284;2023-04-03T05:04:35;9.60;;;5.90;;
5191;SDS011;2615;44.524;11.284;2023-04-03T05:07:04;8.77;;;5.60;;
5191;SDS011;2615;44.524;11.284;2023-04-03T05:09:32;10.93;;;6.37;;
5191;SDS011;2615;44.524;11.284;2023-04-03T05:12:00;12.10;;;6.30;;
5191;SDS011;2615;44.524;11.284;2023-04-03T05:14:29;11.37;;;6.30;;
5191;SDS011;2615;44.524;11.284;2023-04-03T05:16:57;7.10;;;6.40;;
5191;SDS011;2615;44.524;11.284;2023-04-03T05:19:26;8.23;;;5.60;;
5191;SDS011;2615;44.524;11.284;2023-04-03T05:21:54;9.90;;;6.10;;
5191;SDS011;2615;44.524;11.284;2023-04-03T05:24:22;10.10;;;6.33;;
5191;SDS011;2615;44.524;11.284;2023-04-03T05:26:51;8.80;;;6.60;;
5191;SDS011;2615;44.524;11.284;2023-04-03T05:29:19;10.47;;;7.20;;
5191;SDS011;2615;44.524;11.284;2023-04-03T05:31:48;12.90;;;6.60;;
5191;SDS011;2615;44.524;11.284;2023-04-03T05:34:17;10.00;;;7.03;;
5191;SDS011;2615;44.524;11.284;2023-04-03T05:36:47;14.87;;;7.17;;
5191;SDS011;2615;44.524;11.284;2023-04-03T05:39:15;10.10;;;6.87;;
5191;SDS011;2615;44.524;11.284;2023-04-03T05:41:43;9.53;;;6.70;;
5191;SDS011;2615;44.524;11.284;2023-04-03T05:44:11;9.97;;;7.00;;
5191;SDS011;2615;44.524;11.284;2023-04-03T05:46:39;12.87;;;6.70;;
5191;SDS011;2615;44.524;11.284;2023-04-03T05:49:07;15.67;;;7.80;;
5191;SDS011;2615;44.524;11.284;2023-04-03T05:51:36;10.40;;;7.47;;
5191;SDS011;2615;44.524;11.284;2023-04-03T05:54:09;11.60;;;6.87;;
5191;SDS011;2615;44.524;11.284;2023-04-03T05:56:41;10.90;;;7.27;;
5191;SDS011;2615;44.524;11.284;2023-04-03T05:59:09;8.77;;;7.40;;
5191;SDS011;2615;44.524;11.284;2023-04-03T06:01:37;11.60;;;6.87;;
5191;SDS011;2615;44.524;11.284;2023-04-03T06:04:05;9.03;;;6.57;;
5191;SDS011;2615;44.524;11.284;2023-04-03T06:06:45;21.50;;;7.30;;
5191;SDS011;2615;44.524;11.284;2023-04-03T06:09:16;13.50;;;6.43;;
5191;SDS011;2615;44.524;11.284;2023-04-03T06:11:44;10.30;;;6.93;;
5191;SDS011;2615;44.524;11.284;2023-04-03T06:14:12;13.17;;;7.00;;
5191;SDS011;2615;44.524;11.284;2023-04-03T06:16:41;14.40;;;6.73;;
5191;SDS011;2615;44.524;11.284;2023-04-03T06:19:10;15.40;;;7.40;;
5191;SDS011;2615;44.524;11.284;2023-04-03T06:21:39;13.23;;;6.97;;
5191;SDS011;2615;44.524;11.284;2023-04-03T06:24:07;14.40;;;9.00;;
5191;SDS011;2615;44.524;11.284;2023-04-03T06:26:37;15.30;;;8.90;;
5191;SDS011;2615;44.524;11.284;2023-04-03T06:29:05;18.97;;;7.67;;
5191;SDS011;2615;44.524;11.284;2023-04-03T06:31:33;10.53;;;7.10;;
5191;SDS011;2615;44.524;11.284;2023-04-03T06:34:02;13.10;;;7.53;;
5191;SDS011;2615;44.524;11.284;2023-04-03T06:36:33;16.27;;;8.20;;
5191;SDS011;2615;44.524;11.284;2023-04-03T06:39:02;10.63;;;7.70;;
5191;SDS011;2615;44.524;11.284;2023-04-03T06:41:30;15.17;;;7.97;;
5191;SDS011;2615;44.524;11.284;2023-04-03T06:44:02;10.40;;;7.50;;
5191;SDS011;2615;44.524;11.284;2023-04-03T06:46:30;14.27;;;7.40;;
5191;SDS011;2615;44.524;11.284;2023-04-03T06:48:59;12.53;;;9.20;;
5191;SDS011;2615;44.524;11.284;2023-04-03T06:51:28;9.90;;;7.70;;
5191;SDS011;2615;44.524;11.284;2023-04-03T06:53:58;17.30;;;8.50;;
5191;SDS011;2615;44.524;11.284;2023-04-03T06:56:27;11.70;;;8.77;;
5191;SDS011;2615;44.524;11.284;2023-04-03T06:58:55;12.50;;;9.60;;
5191;SDS011;2615;44.524;11.284;2023-04-03T07:01:25;17.70;;;11.07;;
5191;SDS011;2615;44.524;11.284;2023-04-03T07:03:55;13.80;;;11.53;;
5191;SDS011;2615;44.524;11.284;2023-04-03T07:06:23;15.10;;;10.47;;
5191;SDS011;2615;44.524;11.284;2023-04-03T07:08:53;14.80;;;11.13;;
5191;SDS011;2615;44.524;11.284;2023-04-03T07:11:22;12.80;;;10.13;;
5191;SDS011;2615;44.524;11.284;2023-04-03T07:13:50;14.93;;;11.50;;
5191;SDS011;2615;44.524;11.284;2023-04-03T07:16:18;18.07;;;12.13;;
5191;SDS011;2615;44.524;11.284;2023-04-03T07:18:48;14.40;;;11.37;;
5191;SDS011;2615;44.524;11.284;2023-04-03T07:21:17;14.10;;;11.83;;
5191;SDS011;2615;44.524;11.284;2023-04-03T07:23:45;13.40;;;11.67;;
5191;SDS011;2615;44.524;11.284;2023-04-03T07:26:18;15.27;;;12.00;;
5191;SDS011;2615;44.524;11.284;2023-04-03T07:28:48;11.97;;;10.57;;
5191;SDS011;2615;44.524;11.284;2023-04-03T07:31:16;14.20;;;12.40;;
5191;SDS011;2615;44.524;11.284;2023-04-03T07:33:45;13.93;;;11.70;;
5191;SDS011;2615;44.524;11.284;2023-04-03T07:36:16;14.73;;;12.27;;
5191;SDS011;2615;44.524;11.284;2023-04-03T07:38:47;14.00;;;12.10;;
5191;SDS011;2615;44.524;11.284;2023-04-03T07:41:16;15.63;;;13.63;;
5191;SDS011;2615;44.524;11.284;2023-04-03T07:43:47;16.07;;;13.03;;
5191;SDS011;2615;44.524;11.284;2023-04-03T07:46:16;18.47;;;12.90;;
5191;SDS011;2615;44.524;11.284;2023-04-03T07:48:45;16.60;;;14.17;;
5191;SDS011;2615;44.524;11.284;2023-04-03T07:51:14;18.50;;;12.23;;
5191;SDS011;2615;44.524;11.284;2023-04-03T07:53:42;21.67;;;13.00;;
5191;SDS011;2615;44.524;11.284;2023-04-03T07:56:10;18.33;;;14.10;;
5191;SDS011;2615;44.524;11.284;2023-04-03T07:58:38;16.50;;;13.87;;
5191;SDS011;2615;44.524;11.284;2023-04-03T08:01:06;21.13;;;13.87;;
5191;SDS011;2615;44.524;11.284;2023-04-03T08:03:34;18.97;;;13.43;;
5191;SDS011;2615;44.524;11.284;2023-04-03T08:06:04;16.90;;;13.73;;
5191;SDS011;2615;44.524;11.284;2023-04-03T08:08:42;16.50;;;13.93;;
5191;SDS011;2615;44.524;11.284;2023-04-03T08:11:10;17.83;;;13.90;;
5191;SDS011;2615;44.524;11.284;2023-04-03T08:13:39;17.27;;;14.53;;
5191;SDS011;2615;44.524;11.284;2023-04-03T08:16:10;16.97;;;14.90;;
5191;SDS011;2615;44.524;11.284;2023-04-03T08:18:39;22.40;;;14.47;;
5191;SDS011;2615;44.524;11.284;2023-04-03T08:21:08;20.90;;;16.10;;
5191;SDS011;2615;44.524;11.284;2023-04-03T08:23:37;18.00;;;15.30;;
5191;SDS011;2615;44.524;11.284;2023-04-03T08:26:09;17.97;;;14.07;;
5191;SDS011;2615;44.524;11.284;2023-04-03T08:28:38;15.93;;;13.20;;
5191;SDS011;2615;44.524;11.284;2023-04-03T08:31:08;17.50;;;12.63;;
5191;SDS011;2615;44.524;11.284;2023-04-03T08:33:38;16.20;;;14.37;;
5191;SDS011;2615;44.524;11.284;2023-04-03T08:36:07;16.80;;;13.23;;
5191;SDS011;2615;44.524;11.284;2023-04-03T08:38:44;13.30;;;10.30;;
5191;SDS011;2615;44.524;11.284;2023-04-03T08:41:15;12.03;;;9.93;;
5191;SDS011;2615;44.524;11.284;2023-04-03T08:43:54;13.63;;;10.20;;
5191;SDS011;2615;44.524;11.284;2023-04-03T08:46:31;15.03;;;10.10;;
5191;SDS011;2615;44.524;11.284;2023-04-03T08:49:10;16.90;;;10.47;;
5191;SDS011;2615;44.524;11.284;2023-04-03T08:51:44;13.73;;;8.60;;
5191;SDS011;2615;44.524;11.284;2023-04-03T08:54:20;12.77;;;8.60;;
5191;SDS011;2615;44.524;11.284;2023-04-03T08:56:56;17.53;;;9.20;;
5191;SDS011;2615;44.524;11.284;2023-04-03T08:59:29;13.50;;;8.17;;
5191;SDS011;2615;44.524;11.284;2023-04-03T09:02:00;13.83;;;9.17;;
5191;SDS011;2615;44.524;11.284;2023-04-03T09:04:33;10.80;;;8.33;;
5191;SDS011;2615;44.524;11.284;2023-04-03T09:07:02;8.87;;;7.17;;
5191;SDS011;2615;44.524;11.284;2023-04-03T09:09:38;13.83;;;8.97;;
5191;SDS011;2615;44.524;11.284;2023-04-03T09:12:12;8.27;;;7.43;;
5191;SDS011;2615;44.524;11.284;2023-04-03T09:14:47;11.57;;;8.67;;
5191;SDS011;2615;44.524;11.284;2023-04-03T09:17:26;12.30;;;9.00;;
5191;SDS011;2615;44.524;11.284;2023-04-03T09:20:04;13.33;;;9.40;;
5191;SDS011;2615;44.524;11.284;2023-04-03T09:22:46;17.37;;;10.23;;
5191;SDS011;2615;44.524;11.284;2023-04-03T09:25:19;13.80;;;8.67;;
5191;SDS011;2615;44.524;11.284;2023-04-03T09:27:51;14.33;;;9.80;;
5191;SDS011;2615;44.524;11.284;2023-04-03T09:30:19;13.97;;;7.97;;
5191;SDS011;2615;44.524;11.284;2023-04-03T09:32:50;11.27;;;8.00;;
5191;SDS011;2615;44.524;11.284;2023-04-03T09:35:21;7.90;;;7.10;;
5191;SDS011;2615;44.524;11.284;2023-04-03T09:38:14;12.23;;;7.13;;
5191;SDS011;2615;44.524;11.284;2023-04-03T09:40:45;11.27;;;7.20;;
5191;SDS011;2615;44.524;11.284;2023-04-03T09:43:23;9.43;;;7.07;;
5191;SDS011;2615;44.524;11.284;2023-04-03T09:45:53;9.73;;;6.13;;
5191;SDS011;2615;44.524;11.284;2023-04-03T09:48:23;10.23;;;5.87;;
5191;SDS011;2615;44.524;11.284;2023-04-03T09:50:54;8.40;;;6.00;;
5191;SDS011;2615;44.524;11.284;2023-04-03T09:53:29;11.97;;;5.93;;
5191;SDS011;2615;44.524;11.284;2023-04-03T09:56:02;9.03;;;6.90;;
5191;SDS011;2615;44.524;11.284;2023-04-03T09:58:33;8.43;;;5.73;;
5191;SDS011;2615;44.524;11.284;2023-04-03T10:01:26;7.90;;;7.10;;
5191;SDS011;2615;44.524;11.284;2023-04-03T10:04:03;9.70;;;6.87;;
5191;SDS011;2615;44.524;11.284;2023-04-03T10:06:34;11.47;;;8.10;;
5191;SDS011;2615;44.524;11.284;2023-04-03T10:09:13;9.13;;;7.97;;
5191;SDS011;2615;44.524;11.284;2023-04-03T10:14:34;18.70;;;7.73;;
5191;SDS011;2615;44.524;11.284;2023-04-03T10:17:06;10.40;;;8.10;;
5191;SDS011;2615;44.524;11.284;2023-04-03T10:19:43;11.87;;;8.87;;
5191;SDS011;2615;44.524;11.284;2023-04-03T10:22:21;11.73;;;7.57;;
5191;SDS011;2615;44.524;11.284;2023-04-03T10:25:01;14.23;;;7.53;;
5191;SDS011;2615;44.524;11.284;2023-04-03T10:27:34;8.73;;;6.47;;
5191;SDS011;2615;44.524;11.284;2023-04-03T10:30:16;12.13;;;7.00;;
5191;SDS011;2615;44.524;11.284;2023-04-03T10:32:53;13.73;;;7.70;;
5191;SDS011;2615;44.524;11.284;2023-04-03T10:35:34;15.47;;;6.20;;
5191;SDS011;2615;44.524;11.284;2023-04-03T10:38:12;8.30;;;4.67;;
5191;SDS011;2615;44.524;11.284;2023-04-03T10:40:47;10.17;;;5.50;;
5191;SDS011;2615;44.524;11.284;2023-04-03T10:43:24;7.97;;;5.43;;
5191;SDS011;2615;44.524;11.284;2023-04-03T10:46:04;8.53;;;4.10;;
5191;SDS011;2615;44.524;11.284;2023-04-03T10:48:43;10.57;;;4.70;;
5191;SDS011;2615;44.524;11.284;2023-04-03T10:51:24;9.73;;;6.37;;
5191;SDS011;2615;44.524;11.284;2023-04-03T10:53:58;6.60;;;4.00;;
5191;SDS011;2615;44.524;11.284;2023-04-03T10:56:32;6.87;;;3.80;;
5191;SDS011;2615;44.524;11.284;2023-04-03T10:59:08;5.47;;;3.83;;
5191;SDS011;2615;44.524;11.284;2023-04-03T11:01:48;8.73;;;3.93;;
5191;SDS011;2615;44.524;11.284;2023-04-03T11:04:19;7.43;;;3.13;;
5191;SDS011;2615;44.524;11.284;2023-04-03T11:06:52;4.60;;;3.23;;
5191;SDS011;2615;44.524;11.284;2023-04-03T11:09:26;6.43;;;3.13;;
5191;SDS011;2615;44.524;11.284;2023-04-03T11:11:56;6.97;;;3.70;;
5191;SDS011;2615;44.524;11.284;2023-04-03T11:14:31;5.80;;;3.33;;
5191;SDS011;2615;44.524;11.284;2023-04-03T11:17:05;6.07;;;2.53;;
5191;SDS011;2615;44.524;11.284;2023-04-03T11:19:44;4.60;;;2.60;;
5191;SDS011;2615;44.524;11.284;2023-04-03T11:22:20;5.40;;;2.87;;
5191;SDS011;2615;44.524;11.284;2023-04-03T11:24:55;4.00;;;2.60;;
5191;SDS011;2615;44.524;11.284;2023-04-03T11:27:30;5.47;;;2.70;;
5191;SDS011;2615;44.524;11.284;2023-04-03T11:30:06;4.30;;;2.87;;
5191;SDS011;2615;44.524;11.284;2023-04-03T11:35:53;3.73;;;2.33;;
5191;SDS011;2615;44.524;11.284;2023-04-03T11:38:25;5.87;;;3.00;;
5191;SDS011;2615;44.524;11.284;2023-04-03T11:40:56;16.53;;;3.20;;
5191;SDS011;2615;44.524;11.284;2023-04-03T11:43:26;6.50;;;2.17;;
5191;SDS011;2615;44.524;11.284;2023-04-03T11:45:57;4.50;;;1.83;;
5191;SDS011;2615;44.524;11.284;2023-04-03T11:51:38;6.30;;;2.53;;
5191;SDS011;2615;44.524;11.284;2023-04-03T12:00:45;3.97;;;2.40;;
5191;SDS011;2615;44.524;11.284;2023-04-03T12:03:33;3.90;;;2.13;;
5191;SDS011;2615;44.524;11.284;2023-04-03T12:09:33;5.77;;;2.60;;
5191;SDS011;2615;44.524;11.284;2023-04-03T12:12:24;3.23;;;1.97;;
5191;SDS011;2615;44.524;11.284;2023-04-03T12:15:21;4.00;;;2.27;;
5191;SDS011;2615;44.524;11.284;2023-04-03T12:18:31;4.27;;;1.87;;
5191;SDS011;2615;44.524;11.284;2023-04-03T12:21:08;3.70;;;1.93;;
5191;SDS011;2615;44.524;11.284;2023-04-03T12:23:56;4.70;;;1.60;;
5191;SDS011;2615;44.524;11.284;2023-04-03T12:26:43;4.50;;;1.90;;
5191;SDS011;2615;44.524;11.284;2023-04-03T12:29:15;3.80;;;1.67;;
5191;SDS011;2615;44.524;11.284;2023-04-03T12:31:50;5.17;;;2.00;;
5191;SDS011;2615;44.524;11.284;2023-04-03T12:34:43;3.67;;;1.93;;
5191;SDS011;2615;44.524;11.284;2023-04-03T12:37:32;5.33;;;1.73;;
5191;SDS011;2615;44.524;11.284;2023-04-03T12:40:10;3.20;;;1.70;;
5191;SDS011;2615;44.524;11.284;2023-04-03T12:43:12;8.53;;;2.10;;
5191;SDS011;2615;44.524;11.284;2023-04-03T12:45:56;6.83;;;2.03;;
5191;SDS011;2615;44.524;11.284;2023-04-03T12:48:30;8.83;;;2.10;;
5191;SDS011;2615;44.524;11.284;2023-04-03T12:51:01;5.40;;;1.53;;
5191;SDS011;2615;44.524;11.284;2023-04-03T12:53:31;4.20;;;1.90;;
5191;SDS011;2615;44.524;11.284;2023-04-03T12:56:18;2.77;;;1.57;;
5191;SDS011;2615;44.524;11.284;2023-04-03T12:58:50;5.50;;;1.80;;
5191;SDS011;2615;44.524;11.284;2023-04-03T13:01:20;3.90;;;2.10;;
5191;SDS011;2615;44.524;11.284;2023-04-03T13:03:53;7.43;;;2.57;;
5191;SDS011;2615;44.524;11.284;2023-04-03T13:06:24;3.90;;;1.80;;
5191;SDS011;2615;44.524;11.284;2023-04-03T13:08:56;5.07;;;1.80;;
5191;SDS011;2615;44.524;11.284;2023-04-03T13:11:27;7.17;;;2.23;;
5191;SDS011;2615;44.524;11.284;2023-04-03T13:14:00;3.33;;;1.70;;
5191;SDS011;2615;44.524;11.284;2023-04-03T13:16:31;3.93;;;2.00;;
5191;SDS011;2615;44.524;11.284;2023-04-03T13:19:00;2.43;;;1.57;;
5191;SDS011;2615;44.524;11.284;2023-04-03T13:21:29;2.60;;;1.83;;
5191;SDS011;2615;44.524;11.284;2023-04-03T13:24:00;3.70;;;1.87;;
5191;SDS011;2615;44.524;11.284;2023-04-03T13:26:40;4.83;;;2.30;;
5191;SDS011;2615;44.524;11.284;2023-04-03T13:29:17;5.23;;;1.73;;
5191;SDS011;2615;44.524;11.284;2023-04-03T13:31:57;2.87;;;1.57;;
5191;SDS011;2615;44.524;11.284;2023-04-03T13:34:27;3.27;;;2.17;;
5191;SDS011;2615;44.524;11.284;2023-04-03T13:36:58;4.80;;;1.70;;
5191;SDS011;2615;44.524;11.284;2023-04-03T13:39:30;3.90;;;1.70;;
5191;SDS011;2615;44.524;11.284;2023-04-03T13:41:59;2.63;;;1.70;;
5191;SDS011;2615;44.524;11.284;2023-04-03T13:44:32;4.20;;;1.83;;
5191;SDS011;2615;44.524;11.284;2023-04-03T13:47:14;3.80;;;1.93;;
5191;SDS011;2615;44.524;11.284;2023-04-03T13:49:45;2.27;;;1.43;;
5191;SDS011;2615;44.524;11.284;2023-04-03T13:52:26;6.13;;;2.30;;
5191;SDS011;2615;44.524;11.284;2023-04-03T13:54:58;3.47;;;2.00;;
5191;SDS011;2615;44.524;11.284;2023-04-03T13:57:33;8.33;;;2.10;;
5191;SDS011;2615;44.524;11.284;2023-04-03T14:02:54;4.83;;;2.20;;
5191;SDS011;2615;44.524;11.284;2023-04-03T14:05:24;4.50;;;1.80;;
5191;SDS011;2615;44.524;11.284;2023-04-03T14:07:52;8.17;;;2.27;;
5191;SDS011;2615;44.524;11.284;2023-04-03T14:10:22;4.63;;;2.40;;
5191;SDS011;2615;44.524;11.284;2023-04-03T14:12:50;4.10;;;2.00;;
5191;SDS011;2615;44.524;11.284;2023-04-03T14:15:18;3.00;;;1.73;;
5191;SDS011;2615;44.524;11.284;2023-04-03T14:17:52;5.50;;;1.93;;
5191;SDS011;2615;44.524;11.284;2023-04-03T14:20:22;4.97;;;2.60;;
5191;SDS011;2615;44.524;11.284;2023-04-03T14:22:52;5.80;;;2.10;;
5191;SDS011;2615;44.524;11.284;2023-04-03T14:25:21;2.93;;;2.10;;
5191;SDS011;2615;44.524;11.284;2023-04-03T14:27:50;6.63;;;2.27;;
5191;SDS011;2615;44.524;11.284;2023-04-03T14:30:22;6.53;;;1.63;;
5191;SDS011;2615;44.524;11.284;2023-04-03T14:32:52;5.00;;;1.77;;
5191;SDS011;2615;44.524;11.284;2023-04-03T14:35:21;6.00;;;1.93;;
5191;SDS011;2615;44.524;11.284;2023-04-03T14:37:50;3.10;;;1.70;;
5191;SDS011;2615;44.524;11.284;2023-04-03T14:40:20;3.70;;;2.03;;
5191;SDS011;2615;44.524;11.284;2023-04-03T14:42:52;4.37;;;2.00;;
5191;SDS011;2615;44.524;11.284;2023-04-03T14:45:22;3.60;;;1.90;;
5191;SDS011;2615;44.524;11.284;2023-04-03T14:47:51;5.07;;;1.60;;
5191;SDS011;2615;44.524;11.284;2023-04-03T14:50:23;3.17;;;1.60;;
5191;SDS011;2615;44.524;11.284;2023-04-03T14:52:53;4.67;;;1.80;;
5191;SDS011;2615;44.524;11.284;2023-04-03T14:55:24;4.10;;;2.00;;
5191;SDS011;2615;44.524;11.284;2023-04-03T14:57:53;4.97;;;2.10;;
5191;SDS011;2615;44.524;11.284;2023-04-03T15:00:21;3.17;;;2.10;;
5191;SDS011;2615;44.524;11.284;2023-04-03T15:02:50;6.03;;;1.87;;
5191;SDS011;2615;44.524;11.284;2023-04-03T15:05:20;4.33;;;2.17;;
5191;SDS011;2615;44.524;11.284;2023-04-03T15:07:49;4.73;;;2.07;;
5191;SDS011;2615;44.524;11.284;2023-04-03T15:10:20;4.13;;;2.20;;
5191;SDS011;2615;44.524;11.284;2023-04-03T15:12:50;5.03;;;2.13;;
5191;SDS011;2615;44.524;11.284;2023-04-03T15:15:19;4.93;;;1.70;;
5191;SDS011;2615;44.524;11.284;2023-04-03T15:17:50;7.17;;;1.90;;
5191;SDS011;2615;44.524;11.284;2023-04-03T15:20:23;3.20;;;1.87;;
5191;SDS011;2615;44.524;11.284;2023-04-03T15:22:54;4.80;;;2.50;;
5191;SDS011;2615;44.524;11.284;2023-04-03T15:25:23;4.90;;;1.70;;
5191;SDS011;2615;44.524;11.284;2023-04-03T15:27:52;5.10;;;2.70;;
5191;SDS011;2615;44.524;11.284;2023-04-03T15:30:20;4.73;;;1.97;;
5191;SDS011;2615;44.524;11.284;2023-04-03T15:32:49;7.13;;;2.60;;
5191;SDS011;2615;44.524;11.284;2023-04-03T15:35:19;4.50;;;2.20;;
5191;SDS011;2615;44.524;11.284;2023-04-03T15:37:47;3.60;;;2.13;;
5191;SDS011;2615;44.524;11.284;2023-04-03T15:40:15;4.50;;;1.80;;
5191;SDS011;2615;44.524;11.284;2023-04-03T15:42:43;4.90;;;1.70;;
5191;SDS011;2615;44.524;11.284;2023-04-03T15:45:12;4.00;;;2.40;;